Airfield :
LOGIN :

Register | Disclaimer

   EN    FR    IT 

 










Legend :    VFR   Marginal VFR   IFR   Intensive IFR   Very Intensive IFR
Visi :
Ceiling :
>= 8 km
>= 3000ft
5 to 8 km
1000 to 3000 ft
1500m to 5 km
500 to 1000 ft
800 to 1500m
200 to 500 ft
< 800m
< 200 ft
Symbols :   Thunderstorms  Fog  Heavy snow  Heavy precipitations  Wind > 20 kt
SIGMETs :     Misc.  Thunderstorms  Icing  Turbulence  Mountain Waves  Volcanic Ashes






- Airport Elevation : 184 ft
- IATA code : BRU


EBBR - Bruxelles

CURRENT METAR :
  • 142350Z 01002KT 9999 SCT032 04/03 Q1002 NOSIG

EXPIRED METARs :
  • 142320Z 36004KT 9999 SCT030 04/03 Q1002 NOSIG
  • 142250Z 34001KT CAVOK 04/03 Q1002 NOSIG
  • 142220Z 05001KT 9999 FEW030 04/03 Q1002 NOSIG
  • 142150Z 08002KT CAVOK 04/03 Q1002 NOSIG
  • 142120Z 09002KT CAVOK 04/03 Q1002 NOSIG
  • 142050Z 10003KT 070V130 CAVOK 04/03 Q1002 NOSIG

TAF TAF EBBR
Valid from the 15 at 00:00 until the 16 at 06:00 UTC


142310Z 1500/1606 04007KT CAVOK
BECMG 1504/1506 BKN006
BECMG 1510/1512 SCT008 BKN012
PROB30
TEMPO 1511/1513 4000 -RA -RADZ
BECMG 1514/1516 SCT025



MET'MAP, your aeronautical weather chart ! - Copyright ORBIFLY December 2007 - Disclaimer

ORBIFLY MET'MAP TEAM :

Programming & Development : Alexandra Zaïnal
Concept & Development : Baudouin d'Aumeries
Co-Development & Prog : Marc-Olivier Méhu
Technical & hardware support : Manuel Goepfert

Contact : metmap@orbifly.com




SOURCES & CREDITS :

   NOAA